createdAt,value
2022-09-26T00:03:19.163Z,21.00
2022-09-26T00:07:02.413Z,23.00
2022-09-26T00:17:44.238Z,19.90
2022-09-26T00:20:13.990Z,19.10
2022-09-26T00:22:45.041Z,18.70
2022-09-26T00:25:17.514Z,20.60
2022-09-26T00:27:50.054Z,21.30
2022-09-26T00:30:22.648Z,22.00
2022-09-26T00:32:56.208Z,21.40
2022-09-26T00:35:29.068Z,21.90
2022-09-26T00:38:02.286Z,20.50
2022-09-26T00:40:34.403Z,21.50
2022-09-26T00:43:46.071Z,20.90
2022-09-26T00:47:04.118Z,19.50
2022-09-26T00:54:30.933Z,20.30
2022-09-26T00:57:49.890Z,20.60
2022-09-26T01:01:18.483Z,23.60
2022-09-26T01:11:36.132Z,22.80
2022-09-26T01:14:18.276Z,22.50
2022-09-26T01:16:56.863Z,21.50
2022-09-26T01:20:07.073Z,18.80
2022-09-26T01:27:39.546Z,21.60
2022-09-26T01:31:13.306Z,20.30
2022-09-26T01:34:24.417Z,22.30
2022-09-26T01:38:04.963Z,23.40
2022-09-26T01:49:29.660Z,19.10
2022-09-26T01:53:01.054Z,20.70
2022-09-26T01:56:41.025Z,22.60
2022-09-26T02:00:21.852Z,22.40
2022-09-26T02:07:17.606Z,19.70
2022-09-26T02:14:12.718Z,21.80
2022-09-26T02:21:07.509Z,24.40
2022-09-26T02:27:54.801Z,19.30
2022-09-26T02:31:01.111Z,20.80
2022-09-26T02:34:42.993Z,22.20
2022-09-26T02:38:18.747Z,23.90
2022-09-26T02:42:14.225Z,24.00
2022-09-26T02:50:15.771Z,20.40
2022-09-26T02:57:09.064Z,20.30
2022-09-26T03:00:49.437Z,20.40
2022-09-26T03:08:10.813Z,22.20
2022-09-26T03:11:25.367Z,21.10
2022-09-26T03:18:06.742Z,20.40
2022-09-26T03:21:07.035Z,20.60
2022-09-26T03:24:46.603Z,22.90
2022-09-26T03:45:37.691Z,30.90
2022-09-26T03:52:45.711Z,25.00
2022-09-26T03:55:55.828Z,20.90
2022-09-26T03:58:55.049Z,26.10
2022-09-26T04:02:14.994Z,24.50
2022-09-26T04:05:41.078Z,26.50
2022-09-26T04:09:17.525Z,25.90
2022-09-26T04:12:42.662Z,25.30
2022-09-26T04:16:02.124Z,24.30
2022-09-26T04:19:03.567Z,22.40
2022-09-26T04:21:49.510Z,21.30
2022-09-26T04:24:25.902Z,23.40
2022-09-26T04:27:01.116Z,25.90
2022-09-26T04:29:36.255Z,24.80
2022-09-26T04:35:53.106Z,25.60
2022-09-26T04:38:23.023Z,25.00
2022-09-26T04:40:53.218Z,25.20
2022-09-26T04:43:22.800Z,24.50
2022-09-26T04:46:18.537Z,23.70
2022-09-26T04:48:52.667Z,23.90
2022-09-26T04:51:29.214Z,24.70
2022-09-26T04:54:02.107Z,25.10
2022-09-26T04:56:35.890Z,25.00
2022-09-26T04:59:09.386Z,23.70
2022-09-26T05:01:48.260Z,24.20
2022-09-26T05:04:36.275Z,25.00
2022-09-26T05:07:20.346Z,23.00
2022-09-26T05:09:49.870Z,25.10
2022-09-26T05:12:21.739Z,25.10
2022-09-26T05:14:54.314Z,23.00
2022-09-26T05:17:24.772Z,22.30
2022-09-26T05:19:54.737Z,21.60
2022-09-26T05:22:25.901Z,20.70
2022-09-26T05:25:29.131Z,23.20
2022-09-26T05:28:01.734Z,23.80
2022-09-26T05:30:31.769Z,22.40
2022-09-26T05:33:15.175Z,22.80
2022-09-26T05:35:58.617Z,21.70
2022-09-26T05:38:28.501Z,20.80
2022-09-26T05:40:58.388Z,21.80
2022-09-26T05:43:31.723Z,22.20
2022-09-26T05:46:06.608Z,22.70
2022-09-26T05:48:40.893Z,22.10
2022-09-26T05:51:27.617Z,23.70
2022-09-26T05:53:58.096Z,21.20
2022-09-26T05:56:28.563Z,21.60
2022-09-26T05:59:01.655Z,19.80
2022-09-26T06:01:32.639Z,21.90
2022-09-26T06:04:03.795Z,21.70
2022-09-26T06:06:37.720Z,21.30
2022-09-26T06:09:11.880Z,23.00
2022-09-26T06:12:05.383Z,21.90
2022-09-26T06:14:35.053Z,21.20
2022-09-26T06:17:04.256Z,21.20
2022-09-26T06:19:46.806Z,20.60
2022-09-26T06:22:18.464Z,20.90
2022-09-26T06:25:01.385Z,21.90
2022-09-26T06:27:33.376Z,21.30
2022-09-26T06:30:16.627Z,22.20
2022-09-26T06:32:46.728Z,20.50
2022-09-26T06:35:42.275Z,21.10
2022-09-26T06:38:14.346Z,21.90
2022-09-26T06:40:43.367Z,22.60
2022-09-26T06:43:13.025Z,23.60
2022-09-26T06:46:01.368Z,24.00
2022-09-26T06:48:43.282Z,20.90
2022-09-26T06:51:23.594Z,21.40
2022-09-26T06:54:07.127Z,20.40
2022-09-26T06:56:36.482Z,19.70
2022-09-26T06:59:06.402Z,22.20
2022-09-26T07:01:54.864Z,21.90
2022-09-26T07:04:57.915Z,21.70
2022-09-26T07:07:42.645Z,24.00
2022-09-26T07:10:19.701Z,22.40
2022-09-26T07:13:07.390Z,22.30
2022-09-26T07:15:37.695Z,21.20
2022-09-26T07:18:36.664Z,20.90
2022-09-26T07:21:24.370Z,20.30
2022-09-26T07:24:14.440Z,19.30
2022-09-26T07:26:44.775Z,17.10
2022-09-26T07:29:14.695Z,16.50
2022-09-26T07:31:45.005Z,16.00
2022-09-26T07:34:27.672Z,15.00
2022-09-26T07:37:10.227Z,15.20
2022-09-26T07:39:55.442Z,15.20
2022-09-26T07:42:26.386Z,14.50
2022-09-26T07:45:23.263Z,14.60
2022-09-26T07:48:02.712Z,12.50
2022-09-26T07:51:11.941Z,13.10
2022-09-26T07:53:50.256Z,13.10
2022-09-26T07:56:37.533Z,11.40
2022-09-26T07:59:30.243Z,12.10
2022-09-26T08:02:34.300Z,12.30
2022-09-26T08:05:06.374Z,11.70
2022-09-26T08:07:37.045Z,12.10
2022-09-26T08:10:26.449Z,11.70
2022-09-26T08:13:18.579Z,10.40
2022-09-26T08:16:23.735Z,12.20
2022-09-26T08:18:59.305Z,11.30
2022-09-26T08:21:30.241Z,11.20
2022-09-26T08:24:02.360Z,10.90
2022-09-26T08:26:34.795Z,11.50
2022-09-26T08:29:24.141Z,11.10
2022-09-26T08:32:09.070Z,12.50
2022-09-26T08:34:57.661Z,10.80
2022-09-26T08:37:53.422Z,10.80
2022-09-26T08:41:07.025Z,11.50
2022-09-26T08:44:46.044Z,11.60
2022-09-26T08:47:55.001Z,11.80
2022-09-26T08:53:47.763Z,11.10
2022-09-26T08:56:32.733Z,10.30
2022-09-26T08:59:47.775Z,9.60
2022-09-26T09:02:27.716Z,10.10
2022-09-26T09:05:05.958Z,10.10
2022-09-26T09:07:41.808Z,11.10
2022-09-26T09:10:18.188Z,10.00
2022-09-26T09:13:42.379Z,10.80
2022-09-26T09:17:20.498Z,10.00
2022-09-26T09:20:31.748Z,10.70
2022-09-26T09:23:19.641Z,9.60
2022-09-26T09:29:49.148Z,9.60
2022-09-26T09:33:06.747Z,9.70
2022-09-26T09:35:50.413Z,9.00
2022-09-26T09:38:43.693Z,9.40
2022-09-26T09:41:32.303Z,10.90
2022-09-26T09:44:06.118Z,9.50
2022-09-26T09:46:41.257Z,9.20
2022-09-26T09:49:13.408Z,8.50
2022-09-26T09:52:21.374Z,8.30
2022-09-26T09:55:07.717Z,8.10
2022-09-26T09:58:01.858Z,8.30
2022-09-26T10:00:41.745Z,9.10
2022-09-26T10:03:39.873Z,9.20
2022-09-26T10:06:44.578Z,9.10
2022-09-26T10:09:36.496Z,9.60
2022-09-26T10:12:45.714Z,9.10
2022-09-26T10:15:36.677Z,8.00
2022-09-26T10:18:24.569Z,8.00
2022-09-26T10:21:20.211Z,9.10
2022-09-26T10:23:52.508Z,8.40
2022-09-26T10:26:35.788Z,7.30
2022-09-26T10:32:05.248Z,6.50
2022-09-26T10:35:24.707Z,6.10
2022-09-26T10:38:19.332Z,8.00
2022-09-26T10:41:02.011Z,5.90
2022-09-26T10:43:56.494Z,6.80
2022-09-26T10:46:51.742Z,6.30
2022-09-26T10:50:04.567Z,7.20
2022-09-26T10:52:54.542Z,5.80
2022-09-26T10:56:00.774Z,5.60
2022-09-26T10:58:43.605Z,6.90
2022-09-26T11:01:23.253Z,7.00
2022-09-26T11:03:59.357Z,6.20
2022-09-26T11:06:39.448Z,6.00
2022-09-26T11:09:28.235Z,6.20
2022-09-26T11:12:40.493Z,6.70
2022-09-26T11:15:15.374Z,6.10
2022-09-26T11:17:50.114Z,5.80
2022-09-26T11:20:44.920Z,6.50
2022-09-26T11:23:38.243Z,6.50
2022-09-26T11:26:35.134Z,5.70
2022-09-26T11:29:44.684Z,6.00
2022-09-26T11:32:31.081Z,6.30
2022-09-26T11:35:36.114Z,6.20
2022-09-26T11:38:24.956Z,5.40
2022-09-26T11:41:40.363Z,5.60
2022-09-26T11:44:36.312Z,5.10
2022-09-26T11:47:45.387Z,5.40
2022-09-26T11:50:35.899Z,6.00
2022-09-26T11:53:51.156Z,5.40
2022-09-26T11:56:52.673Z,5.20
2022-09-26T11:59:46.287Z,5.10
2022-09-26T12:02:42.563Z,5.00
2022-09-26T12:05:46.022Z,6.10
2022-09-26T12:08:36.237Z,5.00
2022-09-26T12:11:17.767Z,5.60
2022-09-26T12:14:25.497Z,4.90
2022-09-26T12:17:40.649Z,5.00
2022-09-26T12:20:38.610Z,5.70
2022-09-26T12:23:19.438Z,5.00
2022-09-26T12:25:55.257Z,5.80
2022-09-26T12:32:02.103Z,5.30
2022-09-26T12:35:10.599Z,5.60
2022-09-26T12:38:35.751Z,5.60
2022-09-26T12:41:26.640Z,5.90
2022-09-26T12:44:22.496Z,4.50
2022-09-26T12:47:04.856Z,4.70
2022-09-26T12:53:03.757Z,4.70
2022-09-26T12:55:50.921Z,5.10
2022-09-26T12:58:43.701Z,4.60
2022-09-26T13:01:43.838Z,4.70
2022-09-26T13:04:46.710Z,4.60
2022-09-26T13:07:34.302Z,4.40
2022-09-26T13:10:11.822Z,4.70
2022-09-26T13:12:59.452Z,4.50
2022-09-26T13:15:35.978Z,5.00
2022-09-26T13:18:35.276Z,4.50
2022-09-26T13:21:12.415Z,4.40
2022-09-26T13:23:44.762Z,4.20
2022-09-26T13:26:31.739Z,4.60
2022-09-26T13:29:17.047Z,4.20
2022-09-26T13:31:58.864Z,5.60
2022-09-26T13:34:40.630Z,4.30
2022-09-26T13:37:36.662Z,3.90
2022-09-26T13:40:19.210Z,3.80
2022-09-26T13:42:59.435Z,4.30
2022-09-26T13:46:01.002Z,4.10
2022-09-26T13:48:39.219Z,4.20
2022-09-26T13:51:23.621Z,5.10
2022-09-26T13:54:11.973Z,5.00
2022-09-26T13:56:51.401Z,4.50
2022-09-26T13:59:26.262Z,5.10
2022-09-26T14:02:29.747Z,4.50
2022-09-26T14:05:01.754Z,5.40
2022-09-26T14:08:01.504Z,5.10
2022-09-26T14:10:54.240Z,4.60
2022-09-26T14:13:38.054Z,5.00
2022-09-26T14:16:28.826Z,5.30
2022-09-26T14:19:42.126Z,5.30
2022-09-26T14:22:18.686Z,5.50
2022-09-26T14:24:48.806Z,5.90
2022-09-26T14:27:42.477Z,5.70
2022-09-26T14:30:29.292Z,5.70
2022-09-26T14:33:13.286Z,5.60
2022-09-26T14:35:43.712Z,6.10
2022-09-26T14:38:20.843Z,5.40
2022-09-26T14:41:02.638Z,5.70
2022-09-26T14:43:32.064Z,5.90
2022-09-26T14:46:20.519Z,5.70
2022-09-26T14:49:07.891Z,5.10
2022-09-26T14:54:20.480Z,4.70
2022-09-26T14:59:43.531Z,5.50
2022-09-26T15:02:16.198Z,4.80
2022-09-26T15:04:59.933Z,4.80
2022-09-26T15:07:33.627Z,5.60
2022-09-26T15:10:25.324Z,5.20
2022-09-26T15:13:02.196Z,5.50
2022-09-26T15:16:10.257Z,5.30
2022-09-26T15:18:48.255Z,5.20
2022-09-26T15:21:30.050Z,5.40
2022-09-26T15:24:00.582Z,5.40
2022-09-26T15:26:35.496Z,5.30
2022-09-26T15:29:07.395Z,5.30
2022-09-26T15:31:46.583Z,5.50
2022-09-26T15:34:19.595Z,5.60
2022-09-26T15:37:18.072Z,4.80
2022-09-26T15:39:47.641Z,5.80
2022-09-26T15:42:44.512Z,6.00
2022-09-26T15:45:30.545Z,6.20
2022-09-26T15:48:02.597Z,6.90
2022-09-26T15:50:45.412Z,6.90
2022-09-26T15:53:39.919Z,6.40
2022-09-26T15:56:33.673Z,6.50
2022-09-26T15:59:32.050Z,6.00
2022-09-26T16:02:01.892Z,7.20
2022-09-26T16:04:33.587Z,7.70
2022-09-26T16:07:19.785Z,8.70
2022-09-26T16:09:56.351Z,8.70
2022-09-26T16:12:30.513Z,8.20
2022-09-26T16:15:17.596Z,8.00
2022-09-26T16:17:53.495Z,8.80
2022-09-26T16:20:31.759Z,9.20
2022-09-26T16:23:05.646Z,9.20
2022-09-26T16:25:55.413Z,8.30
2022-09-26T16:28:53.141Z,7.60
2022-09-26T16:31:46.571Z,9.20
2022-09-26T16:34:26.880Z,8.80
2022-09-26T16:36:58.179Z,7.20
2022-09-26T16:39:30.834Z,7.30
2022-09-26T16:42:21.362Z,7.10
2022-09-26T16:44:55.056Z,7.10
2022-09-26T16:47:45.052Z,7.90
2022-09-26T16:50:33.087Z,8.20
2022-09-26T16:53:10.402Z,8.00
2022-09-26T16:55:41.337Z,9.00
2022-09-26T16:58:18.259Z,8.10
2022-09-26T17:01:06.568Z,8.90
2022-09-26T17:03:41.593Z,8.30
2022-09-26T17:06:11.312Z,8.90
2022-09-26T17:08:42.851Z,9.00
2022-09-26T17:11:16.036Z,9.20
2022-09-26T17:13:49.467Z,9.60
2022-09-26T17:16:34.221Z,8.90
2022-09-26T17:19:05.649Z,8.50
2022-09-26T17:21:36.380Z,8.70
2022-09-26T17:24:19.046Z,8.70
2022-09-26T17:26:58.496Z,8.50
2022-09-26T17:29:35.978Z,9.50
2022-09-26T17:32:40.004Z,10.20
2022-09-26T17:35:18.574Z,9.70
2022-09-26T17:37:54.207Z,9.20
2022-09-26T17:40:27.053Z,10.30
2022-09-26T17:42:59.571Z,9.20
2022-09-26T17:45:47.260Z,8.90
2022-09-26T17:48:31.842Z,7.80
2022-09-26T17:51:08.794Z,8.10
2022-09-26T17:53:50.922Z,8.30
2022-09-26T17:56:21.013Z,8.20
2022-09-26T17:58:54.432Z,8.00
2022-09-26T18:01:37.695Z,8.00
2022-09-26T18:04:07.840Z,7.30
2022-09-26T18:09:53.890Z,7.70
2022-09-26T18:12:28.202Z,7.00
2022-09-26T18:14:59.816Z,8.60
2022-09-26T18:17:29.532Z,8.40
2022-09-26T18:20:00.593Z,7.40
2022-09-26T18:22:37.192Z,7.30
2022-09-26T18:25:19.217Z,7.00
2022-09-26T18:28:01.544Z,6.80
2022-09-26T18:30:31.335Z,6.80
2022-09-26T18:33:01.563Z,8.30
2022-09-26T18:35:31.734Z,7.60
2022-09-26T18:41:07.224Z,7.90
2022-09-26T18:43:42.899Z,8.20
2022-09-26T18:46:16.616Z,27.10
2022-09-26T18:48:46.738Z,24.10
2022-09-26T18:51:16.782Z,9.90
2022-09-26T18:53:47.296Z,7.30
2022-09-26T18:56:35.987Z,6.70
2022-09-26T18:59:05.390Z,5.40
2022-09-26T19:01:48.428Z,5.90
2022-09-26T19:04:22.011Z,6.20
2022-09-26T19:09:36.550Z,6.80
2022-09-26T19:12:08.030Z,6.50
2022-09-26T19:14:37.092Z,6.40
2022-09-26T19:17:06.388Z,5.60
2022-09-26T19:19:35.268Z,6.30
2022-09-26T19:22:11.110Z,6.50
2022-09-26T19:24:55.687Z,8.80
2022-09-26T19:27:43.034Z,9.60
2022-09-26T19:30:18.385Z,11.80
2022-09-26T19:35:27.022Z,13.70
2022-09-26T19:38:00.617Z,14.00
2022-09-26T19:40:31.130Z,14.20
2022-09-26T19:43:00.281Z,12.50
2022-09-26T19:45:32.140Z,11.80
2022-09-26T19:48:03.869Z,11.00
2022-09-26T19:50:38.602Z,12.00
2022-09-26T19:53:14.799Z,11.50
2022-09-26T19:55:44.724Z,12.20
2022-09-26T19:58:23.083Z,11.70
2022-09-26T20:01:01.637Z,11.10
2022-09-26T20:03:40.225Z,10.50
2022-09-26T20:06:18.128Z,10.30
2022-09-26T20:08:50.689Z,9.90
2022-09-26T20:11:36.391Z,10.50
2022-09-26T20:14:37.491Z,10.10
2022-09-26T20:17:46.321Z,10.70
2022-09-26T20:20:52.829Z,11.30
2022-09-26T20:23:43.889Z,10.30
2022-09-26T20:26:23.830Z,9.70
2022-09-26T20:29:01.886Z,10.90
2022-09-26T20:31:57.707Z,11.60
2022-09-26T20:34:30.970Z,11.60
2022-09-26T20:37:03.964Z,12.50
2022-09-26T20:39:34.581Z,11.50
2022-09-26T20:42:07.954Z,10.90
2022-09-26T20:44:38.406Z,10.90
2022-09-26T20:47:11.550Z,10.80
2022-09-26T20:50:01.693Z,11.40
2022-09-26T20:52:31.487Z,12.00
2022-09-26T20:55:01.123Z,11.30
2022-09-26T20:58:01.308Z,12.30
2022-09-26T21:01:03.990Z,11.50
2022-09-26T21:07:26.549Z,15.90
2022-09-26T21:10:49.318Z,14.90
2022-09-26T21:14:24.336Z,14.30
2022-09-26T21:17:53.228Z,13.80
2022-09-26T21:20:36.827Z,13.30
2022-09-26T21:24:05.158Z,12.60
2022-09-26T21:27:36.564Z,11.90
2022-09-26T21:30:35.156Z,12.60
2022-09-26T21:34:16.950Z,14.10
2022-09-26T21:37:18.078Z,14.10
2022-09-26T21:40:39.313Z,13.20
2022-09-26T21:44:16.765Z,13.20
2022-09-26T21:47:32.803Z,12.00
2022-09-26T21:50:54.021Z,12.00
2022-09-26T21:54:28.788Z,11.60
2022-09-26T21:57:59.267Z,12.20
2022-09-26T22:01:19.754Z,14.40
2022-09-26T22:05:07.226Z,13.50
2022-09-26T22:15:30.100Z,13.50
2022-09-26T22:18:25.246Z,13.50
2022-09-26T22:21:42.232Z,13.20
2022-09-26T22:27:52.888Z,14.80
2022-09-26T22:34:31.422Z,17.30
2022-09-26T22:37:32.035Z,17.40
2022-09-26T22:41:07.849Z,17.00
2022-09-26T22:47:31.937Z,16.40
2022-09-26T22:50:50.619Z,16.50
2022-09-26T22:57:30.067Z,17.10
2022-09-26T23:00:35.016Z,17.60
2022-09-26T23:04:13.993Z,18.80
2022-09-26T23:14:42.033Z,18.30
2022-09-26T23:17:59.375Z,18.10
2022-09-26T23:21:28.283Z,18.30
2022-09-26T23:25:01.901Z,20.50
2022-09-26T23:32:11.177Z,21.50
2022-09-26T23:35:48.271Z,19.30
2022-09-26T23:39:02.112Z,18.40
2022-09-26T23:42:16.598Z,19.90
2022-09-26T23:45:14.050Z,20.40
2022-09-26T23:51:57.676Z,22.30
2022-09-26T23:54:53.209Z,21.20
